Usak, Turkey
Current Conditions -  °F | °C
As of 4:50 AM on Wednesday 22 Oct 2014 (Local Time) from LTAY Reporting Station
Clear Clear  
Wind Chill: 55°   Ceiling: Unl
Heat Index: 55°   Visibility: 6mi
Dew Point: 41°   Wind: 14mph
Humidity: 58%   Direction: 160°SSE
Pressure: 29.97"   Gusts: NA
Location:  38.68°N, 29.41°E
Report Text: LTAY 220150Z 16012KT CAVOK 13/05 Q1015
Loading
Personal Weather Stations






























Interactive Weather Map
Tropical Storm Tracking
New forecast layout! Learn more

10-Day Weather Forecast

Advertisements
Track Severe Weather on mobile